Chesterfield, Illinois
Current Conditions -  °F | °C
As of 4:55 AM on Monday 20 Oct 2014 (Local Time) from K3LF Reporting Station
Scattered Clouds Scattered Clouds  
Wind Chill: 46°   Ceiling: Unl
Heat Index: 49°   Visibility: 10mi
Dew Point: 45°   Wind: 6mph
Humidity: 88%   Direction: 170°S
Pressure: 29.95"   Gusts: NA
Location:  39.26°N, 90.06°W
Report Text: K3LF 200955Z AUTO 17005KT 10SM SCT100 09/07 A2995 RMK AO2 T00920073
Loading
Personal Weather Stations






























Interactive Weather Map
Tropical Storm Tracking
New forecast layout! Learn more

10-Day Weather Forecast

Advertisements
Track Severe Weather on mobile